createdAt,value
2022-08-11T00:02:05.617Z,101191.52
2022-08-11T00:07:19.650Z,101193.11
2022-08-11T00:12:23.406Z,101191.92
2022-08-11T00:17:32.063Z,101191.66
2022-08-11T00:22:38.189Z,101189.48
2022-08-11T00:27:42.473Z,101185.54
2022-08-11T00:32:54.922Z,101180.85
2022-08-11T00:38:00.037Z,101177.48
2022-08-11T00:43:35.121Z,101179.46
2022-08-11T00:49:12.534Z,101177.42
2022-08-11T00:54:39.043Z,101178.13
2022-08-11T01:00:06.493Z,101180.52
2022-08-11T01:05:46.670Z,101176.61
2022-08-11T01:11:08.222Z,101181.42
2022-08-11T01:16:30.289Z,101184.33
2022-08-11T01:21:51.523Z,101185.17
2022-08-11T01:27:03.035Z,101180.96
2022-08-11T01:32:23.968Z,101183.00
2022-08-11T01:37:45.543Z,101180.95
2022-08-11T01:43:15.977Z,101179.23
2022-08-11T01:48:42.456Z,101181.30
2022-08-11T01:53:47.789Z,101180.84
2022-08-11T01:59:21.233Z,101183.39
2022-08-11T02:04:46.955Z,101187.13
2022-08-11T02:10:40.316Z,101191.15
2022-08-11T02:15:50.308Z,101191.83
2022-08-11T02:21:15.924Z,101192.92
2022-08-11T02:26:24.482Z,101195.00
2022-08-11T02:32:24.669Z,101195.34
2022-08-11T02:37:33.369Z,101195.92
2022-08-11T02:42:45.419Z,101203.64
2022-08-11T02:48:17.907Z,101207.90
2022-08-11T02:53:37.786Z,101212.80
2022-08-11T02:59:42.108Z,101218.58
2022-08-11T03:05:14.002Z,101218.63
2022-08-11T03:10:32.644Z,101218.77
2022-08-11T03:16:38.105Z,101212.09
2022-08-11T03:22:01.522Z,101208.00
2022-08-11T03:27:27.890Z,101208.85
2022-08-11T03:33:17.403Z,101212.71
2022-08-11T03:38:30.663Z,101221.06
2022-08-11T03:43:50.136Z,101224.60
2022-08-11T03:49:21.754Z,101225.80
2022-08-11T03:55:13.963Z,101226.39
2022-08-11T04:00:42.095Z,101226.85
2022-08-11T04:06:03.330Z,101238.47
2022-08-11T04:11:24.306Z,101238.63
2022-08-11T04:16:36.140Z,101238.24
2022-08-11T04:22:07.364Z,101239.45
2022-08-11T04:27:37.399Z,101241.38
2022-08-11T04:33:18.385Z,101240.80
2022-08-11T04:38:33.499Z,101239.59
2022-08-11T04:44:11.879Z,101241.60
2022-08-11T04:49:36.336Z,101240.10
2022-08-11T04:55:03.967Z,101234.63
2022-08-11T05:00:29.088Z,101234.92
2022-08-11T05:05:57.251Z,101236.80
2022-08-11T05:11:09.302Z,101239.68
2022-08-11T05:16:34.730Z,101244.81
2022-08-11T05:22:00.086Z,101241.16
2022-08-11T05:27:26.505Z,101244.38
2022-08-11T05:33:02.603Z,101242.56
2022-08-11T05:38:31.941Z,101248.03
2022-08-11T05:44:20.034Z,101244.34
2022-08-11T05:49:42.259Z,101245.71
2022-08-11T05:55:06.949Z,101243.80
2022-08-11T06:00:11.894Z,101247.56
2022-08-11T06:05:16.328Z,101246.50
2022-08-11T06:10:51.792Z,101245.55
2022-08-11T06:15:56.132Z,101246.27
2022-08-11T06:21:00.674Z,101253.38
2022-08-11T06:26:09.933Z,101253.44
2022-08-11T06:31:15.453Z,101251.33
2022-08-11T06:36:43.303Z,101250.36
2022-08-11T06:42:06.683Z,101252.73
2022-08-11T06:47:12.615Z,101257.52
2022-08-11T06:52:34.943Z,101256.17
2022-08-11T06:58:00.178Z,101247.31
2022-08-11T07:03:13.025Z,101249.44
2022-08-11T07:09:23.384Z,101246.17
2022-08-11T07:14:48.657Z,101243.31
2022-08-11T07:20:17.104Z,101245.82
2022-08-11T07:25:41.335Z,101243.40
2022-08-11T07:30:45.010Z,101244.20
2022-08-11T07:35:51.116Z,101243.29
2022-08-11T07:40:54.041Z,101241.91
2022-08-11T07:46:15.890Z,101236.05
2022-08-11T07:51:39.919Z,101232.29
2022-08-11T07:56:55.037Z,101235.77
2022-08-11T08:02:19.309Z,101231.25
2022-08-11T08:07:42.243Z,101231.86
2022-08-11T08:13:04.177Z,101228.37
2022-08-11T08:18:25.569Z,101230.44
2022-08-11T08:23:33.769Z,101231.34
2022-08-11T08:28:37.174Z,101229.82
2022-08-11T08:33:42.332Z,101226.30
2022-08-11T08:38:51.235Z,101222.20
2022-08-11T08:44:20.982Z,101225.77
2022-08-11T08:49:29.532Z,101219.10
2022-08-11T08:54:43.281Z,101213.89
2022-08-11T08:59:51.359Z,101209.02
2022-08-11T09:04:54.931Z,101208.81
2022-08-11T09:09:59.834Z,101206.23
2022-08-11T09:15:05.936Z,101201.96
2022-08-11T09:20:24.946Z,101199.42
2022-08-11T09:25:49.321Z,101199.23
2022-08-11T09:30:53.800Z,101191.00
2022-08-11T09:35:57.955Z,101184.30
2022-08-11T09:41:05.641Z,101176.14
2022-08-11T09:46:10.036Z,101168.84
2022-08-11T09:51:14.643Z,101167.91
2022-08-11T09:56:39.080Z,101166.61
2022-08-11T10:01:49.282Z,101164.21
2022-08-11T10:07:01.883Z,101158.21
2022-08-11T10:12:13.023Z,101151.24
2022-08-11T10:17:18.862Z,101146.92
2022-08-11T10:22:40.584Z,101137.36
2022-08-11T10:28:17.767Z,101140.61
2022-08-11T10:33:36.855Z,101141.39
2022-08-11T10:38:40.353Z,101132.97
2022-08-11T10:44:01.668Z,101123.80
2022-08-11T10:49:06.650Z,101116.55
2022-08-11T10:54:28.869Z,101109.84
2022-08-11T10:59:34.525Z,101104.52
2022-08-11T11:04:54.234Z,101108.25
2022-08-11T11:10:02.008Z,101098.28
2022-08-11T11:15:25.550Z,101095.77
2022-08-11T11:20:41.617Z,101093.95
2022-08-11T11:26:27.126Z,101087.48
2022-08-11T11:31:36.591Z,101080.68
2022-08-11T11:36:47.840Z,101078.71
2022-08-11T11:41:53.482Z,101073.66
2022-08-11T11:46:57.631Z,101073.46
2022-08-11T11:52:01.085Z,101075.39
2022-08-11T11:57:24.847Z,101069.15
2022-08-11T12:02:28.366Z,101060.45
2022-08-11T12:07:56.973Z,101050.57
2022-08-11T12:13:36.087Z,101035.79
2022-08-11T12:18:41.225Z,101027.41
2022-08-11T12:24:06.527Z,101020.64
2022-08-11T12:29:11.611Z,101012.48
2022-08-11T12:34:16.172Z,101000.14
2022-08-11T12:40:16.047Z,100999.77
2022-08-11T12:45:28.234Z,100991.77
2022-08-11T12:50:50.485Z,100990.47
2022-08-11T12:56:19.782Z,100980.64
2022-08-11T13:01:41.419Z,100972.88
2022-08-11T13:06:44.840Z,100967.88
2022-08-11T13:12:07.038Z,100970.23
2022-08-11T13:17:43.572Z,100964.22
2022-08-11T13:22:50.383Z,100968.98
2022-08-11T13:27:57.187Z,100961.23
2022-08-11T13:33:07.804Z,100957.41
2022-08-11T13:38:18.927Z,100958.44
2022-08-11T13:43:25.915Z,100951.14
2022-08-11T13:48:28.877Z,100944.48
2022-08-11T13:53:32.802Z,100941.20
2022-08-11T13:58:40.087Z,100936.84
2022-08-11T14:04:31.054Z,100930.31
2022-08-11T14:09:10.836Z,100923.29
2022-08-11T14:14:21.297Z,100920.20
2022-08-11T14:19:26.167Z,100920.35
2022-08-11T14:24:29.864Z,100915.48
2022-08-11T14:29:44.812Z,100914.63
2022-08-11T14:34:52.886Z,100909.51
2022-08-11T14:40:03.822Z,100911.34
2022-08-11T14:45:57.503Z,100907.59
2022-08-11T14:51:02.118Z,100902.45
2022-08-11T14:56:24.853Z,100905.08
2022-08-11T15:01:46.425Z,100900.38
2022-08-11T15:06:50.435Z,100896.20
2022-08-11T15:12:31.511Z,100889.11
2022-08-11T15:17:43.008Z,100884.46
2022-08-11T15:23:04.659Z,100890.04
2022-08-11T15:28:29.040Z,100889.14
2022-08-11T15:33:51.647Z,100890.65
2022-08-11T15:39:20.552Z,100889.65
2022-08-11T15:45:03.568Z,100894.36
2022-08-11T15:50:13.944Z,100895.52
2022-08-11T15:55:19.145Z,100888.94
2022-08-11T16:00:41.789Z,100879.83
2022-08-11T16:05:53.267Z,100872.15
2022-08-11T16:10:57.455Z,100870.41
2022-08-11T16:16:14.964Z,100866.02
2022-08-11T16:21:35.107Z,100867.39
2022-08-11T16:27:11.606Z,100868.52
2022-08-11T16:32:19.125Z,100874.11
2022-08-11T16:37:42.255Z,100876.77
2022-08-11T16:43:10.853Z,100872.58
2022-08-11T16:48:35.422Z,100868.44
2022-08-11T16:54:00.131Z,100873.11
2022-08-11T16:59:18.237Z,100871.91
2022-08-11T17:04:46.259Z,100874.05
2022-08-11T17:10:39.281Z,100876.66
2022-08-11T17:15:51.002Z,100872.15
2022-08-11T17:20:55.621Z,100875.45
2022-08-11T17:26:03.250Z,100880.23
2022-08-11T17:31:26.332Z,100879.48
2022-08-11T17:36:29.433Z,100882.50
2022-08-11T17:41:50.919Z,100884.35
2022-08-11T17:47:13.142Z,100888.75
2022-08-11T17:52:35.662Z,100900.23
2022-08-11T17:57:58.874Z,100906.88
2022-08-11T18:03:21.592Z,100912.41
2022-08-11T18:08:44.488Z,100914.00
2022-08-11T18:14:08.339Z,100923.87
2022-08-11T18:19:30.749Z,100922.66
2022-08-11T18:24:58.566Z,100927.77
2022-08-11T18:30:22.919Z,100932.61
2022-08-11T18:35:47.332Z,100938.16
2022-08-11T18:41:10.816Z,100938.29
2022-08-11T18:46:36.977Z,100943.21
2022-08-11T18:52:00.379Z,100945.11
2022-08-11T18:57:24.967Z,100944.94
2022-08-11T19:02:49.561Z,100951.26
2022-08-11T19:08:14.343Z,100952.16
2022-08-11T19:13:40.387Z,100953.84
2022-08-11T19:19:07.750Z,100960.86
2022-08-11T19:24:30.397Z,100961.52
2022-08-11T19:30:11.973Z,100970.23
2022-08-11T19:35:36.496Z,100974.06
2022-08-11T19:40:59.802Z,100980.08
2022-08-11T19:46:24.613Z,100978.39
2022-08-11T19:51:53.458Z,100981.70
2022-08-11T19:57:15.905Z,100987.07
2022-08-11T20:02:38.523Z,100981.64
2022-08-11T20:08:01.634Z,100979.63
2022-08-11T20:13:26.575Z,100982.65
2022-08-11T20:18:48.829Z,100991.36
2022-08-11T20:24:10.104Z,100991.74
2022-08-11T20:29:31.763Z,100992.43
2022-08-11T20:34:55.219Z,101000.02
2022-08-11T20:40:23.813Z,100995.59
2022-08-11T20:45:55.171Z,100998.28
2022-08-11T20:51:19.875Z,100995.40
2022-08-11T20:56:47.580Z,101001.15
2022-08-11T21:02:11.083Z,100997.28
2022-08-11T21:07:35.894Z,101000.85
2022-08-11T21:13:24.119Z,101005.63
2022-08-11T21:18:48.048Z,101006.61
2022-08-11T21:24:11.556Z,101008.84
2022-08-11T21:29:34.187Z,101008.73
2022-08-11T21:34:56.704Z,101015.23
2022-08-11T21:40:20.897Z,101019.44
2022-08-11T21:45:44.387Z,101021.79
2022-08-11T21:51:06.236Z,101021.92
2022-08-11T21:56:29.909Z,101019.24
2022-08-11T22:01:52.160Z,101021.20
2022-08-11T22:07:15.174Z,101024.41
2022-08-11T22:12:41.009Z,101020.70
2022-08-11T22:18:05.723Z,101017.83
2022-08-11T22:23:35.814Z,101017.64
2022-08-11T22:28:58.174Z,101019.65
2022-08-11T22:34:20.806Z,101014.96
2022-08-11T22:39:44.509Z,101010.93
2022-08-11T22:45:06.183Z,101007.86
2022-08-11T22:50:29.059Z,101007.33
2022-08-11T22:55:51.211Z,101006.59
2022-08-11T23:01:14.347Z,101008.36
2022-08-11T23:06:37.982Z,101005.67
2022-08-11T23:12:07.750Z,101007.84
2022-08-11T23:17:32.739Z,101010.75
2022-08-11T23:22:57.200Z,101005.48
2022-08-11T23:28:21.491Z,101005.61
2022-08-11T23:33:43.571Z,101009.16
2022-08-11T23:39:05.280Z,101007.05
2022-08-11T23:44:27.687Z,101011.90
2022-08-11T23:49:49.540Z,101015.66
2022-08-11T23:55:11.542Z,101014.76
